createdAt,value
2019-02-22T00:02:09.535Z,36.47
2019-02-22T00:04:38.599Z,33.37
2019-02-22T00:07:27.773Z,33.50
2019-02-22T00:10:10.490Z,31.90
2019-02-22T00:12:51.557Z,31.43
2019-02-22T00:15:20.881Z,36.60
2019-02-22T00:18:09.187Z,39.23
2019-02-22T00:20:57.555Z,33.20
2019-02-22T00:29:04.132Z,34.63
2019-02-22T00:31:52.425Z,36.27
2019-02-22T00:34:33.262Z,34.20
2019-02-22T00:37:13.976Z,37.87
2019-02-22T00:39:58.218Z,35.67
2019-02-22T00:42:39.512Z,38.33
2019-02-22T00:45:20.585Z,38.20
2019-02-22T00:48:01.179Z,44.13
2019-02-22T00:50:41.946Z,37.10
2019-02-22T00:53:22.510Z,36.10
2019-02-22T00:56:03.564Z,42.70
2019-02-22T00:58:44.866Z,42.90
2019-02-22T01:01:25.716Z,39.40
2019-02-22T01:04:07.062Z,44.77
2019-02-22T01:06:47.478Z,37.90
2019-02-22T01:09:28.480Z,44.83
2019-02-22T01:12:09.671Z,53.47
2019-02-22T01:14:50.167Z,42.50
2019-02-22T01:17:30.784Z,43.50
2019-02-22T01:20:11.429Z,44.97
2019-02-22T01:22:52.273Z,49.10
2019-02-22T01:25:32.817Z,53.57
2019-02-22T01:28:14.316Z,48.23
2019-02-22T01:30:55.769Z,46.00
2019-02-22T01:33:37.224Z,52.70
2019-02-22T01:36:17.908Z,45.87
2019-02-22T01:38:58.733Z,52.57
2019-02-22T01:41:40.079Z,52.07
2019-02-22T01:44:21.101Z,52.43
2019-02-22T01:47:02.417Z,51.47
2019-02-22T01:49:42.977Z,57.20
2019-02-22T01:52:23.606Z,59.93
2019-02-22T01:55:05.148Z,59.80
2019-02-22T01:57:45.781Z,62.97
2019-02-22T02:03:25.529Z,57.33
2019-02-22T02:05:54.677Z,71.20
2019-02-22T02:08:43.095Z,57.93
2019-02-22T02:11:31.482Z,57.77
2019-02-22T02:14:10.797Z,59.63
2019-02-22T02:16:59.385Z,55.27
2019-02-22T02:19:51.800Z,63.13
2019-02-22T02:22:33.367Z,61.50
2019-02-22T02:25:14.358Z,66.00
2019-02-22T02:27:54.735Z,59.73
2019-02-22T02:30:35.897Z,59.47
2019-02-22T02:33:16.809Z,63.47
2019-02-22T02:35:57.458Z,66.50
2019-02-22T02:38:38.441Z,70.30
2019-02-22T02:41:19.239Z,67.33
2019-02-22T02:44:00.088Z,68.07
2019-02-22T02:46:40.883Z,68.23
2019-02-22T02:49:22.317Z,64.30
2019-02-22T02:52:03.475Z,69.90
2019-02-22T02:54:45.031Z,71.23
2019-02-22T02:57:24.686Z,74.53
2019-02-22T03:00:12.944Z,70.27
2019-02-22T03:02:53.843Z,76.50
2019-02-22T03:05:58.818Z,76.20
2019-02-22T03:08:40.161Z,79.63
2019-02-22T03:11:22.347Z,81.10
2019-02-22T03:14:04.031Z,77.47
2019-02-22T03:16:48.917Z,90.87
2019-02-22T03:19:30.523Z,71.90
2019-02-22T03:22:11.203Z,78.93
2019-02-22T03:24:40.334Z,84.20
2019-02-22T03:27:28.664Z,80.03
2019-02-22T03:30:10.146Z,77.87
2019-02-22T03:32:50.890Z,86.63
2019-02-22T03:35:30.387Z,78.13
2019-02-22T03:38:18.626Z,78.53
2019-02-22T03:40:59.838Z,80.83
2019-02-22T03:43:41.247Z,78.50
2019-02-22T03:46:22.509Z,73.60
2019-02-22T03:49:03.706Z,77.90
2019-02-22T03:51:45.099Z,77.40
2019-02-22T03:54:25.756Z,76.07
2019-02-22T03:57:06.838Z,77.43
2019-02-22T03:59:50.939Z,74.50
2019-02-22T04:02:30.639Z,77.90
2019-02-22T04:05:11.386Z,73.50
2019-02-22T04:07:52.649Z,82.57
2019-02-22T04:10:33.364Z,78.63
2019-02-22T04:13:14.155Z,79.03
2019-02-22T04:15:55.281Z,78.90
2019-02-22T04:18:36.343Z,85.73
2019-02-22T04:21:17.173Z,87.43
2019-02-22T04:23:57.825Z,86.50
2019-02-22T04:26:38.782Z,94.50
2019-02-22T04:29:19.706Z,83.50
2019-02-22T04:32:00.537Z,98.40
2019-02-22T04:37:54.259Z,84.00
2019-02-22T04:40:23.397Z,88.77
2019-02-22T04:43:11.643Z,90.37
2019-02-22T04:45:40.560Z,84.50
2019-02-22T04:48:28.815Z,81.00
2019-02-22T04:51:10.008Z,90.97
2019-02-22T04:53:50.751Z,89.03
2019-02-22T04:56:31.747Z,87.47
2019-02-22T05:02:07.928Z,93.13
2019-02-22T05:04:48.749Z,91.47
2019-02-22T05:07:29.728Z,94.47
2019-02-22T05:10:11.122Z,91.10
2019-02-22T05:12:52.258Z,98.07
2019-02-22T05:15:33.325Z,93.43
2019-02-22T05:18:14.443Z,90.00
2019-02-22T05:20:55.497Z,85.13
2019-02-22T05:23:36.667Z,87.50
2019-02-22T05:26:18.167Z,98.70
2019-02-22T05:28:58.836Z,87.53
2019-02-22T05:31:40.669Z,85.07
2019-02-22T05:37:14.578Z,84.20
2019-02-22T05:39:55.498Z,88.30
2019-02-22T05:42:36.262Z,85.23
2019-02-22T05:45:15.752Z,82.33
2019-02-22T05:48:03.915Z,83.30
2019-02-22T05:50:44.452Z,81.07
2019-02-22T05:53:25.869Z,78.63
2019-02-22T05:56:06.406Z,92.20
2019-02-22T05:58:47.918Z,82.10
2019-02-22T06:01:28.570Z,89.90
2019-02-22T06:04:09.841Z,82.37
2019-02-22T06:06:51.615Z,91.93
2019-02-22T06:09:20.758Z,98.83
2019-02-22T06:12:09.085Z,92.47
2019-02-22T06:14:57.335Z,90.40
2019-02-22T06:17:38.699Z,89.13
2019-02-22T06:20:20.243Z,90.87
2019-02-22T06:26:06.119Z,90.10
2019-02-22T06:28:54.668Z,86.17
2019-02-22T06:34:48.432Z,77.40
2019-02-22T06:37:30.760Z,78.97
2019-02-22T06:40:11.809Z,75.00
2019-02-22T06:42:53.449Z,76.43
2019-02-22T06:45:34.688Z,73.90
2019-02-22T06:48:15.320Z,78.20
2019-02-22T06:50:55.937Z,75.17
2019-02-22T06:53:36.759Z,66.13
2019-02-22T06:56:17.331Z,61.40
2019-02-22T06:58:58.008Z,58.60
2019-02-22T07:01:39.440Z,64.33
2019-02-22T07:04:08.523Z,55.90
2019-02-22T07:06:56.774Z,60.27
2019-02-22T07:09:45.144Z,52.33
2019-02-22T07:12:36.801Z,76.57
2019-02-22T07:15:17.417Z,67.00
2019-02-22T07:17:46.598Z,59.27
2019-02-22T07:20:35.045Z,56.40
2019-02-22T07:23:15.662Z,56.90
2019-02-22T07:25:56.423Z,61.00
2019-02-22T07:28:37.733Z,54.07
2019-02-22T07:31:18.272Z,58.00
2019-02-22T07:33:59.868Z,64.80
2019-02-22T07:36:41.471Z,57.70
2019-02-22T07:39:28.010Z,54.67
2019-02-22T07:42:05.246Z,59.60
2019-02-22T07:44:46.053Z,61.97
2019-02-22T07:47:29.269Z,59.93
2019-02-22T07:49:58.384Z,54.03
2019-02-22T07:52:46.720Z,55.83
2019-02-22T07:55:35.200Z,51.97
2019-02-22T07:58:16.106Z,54.83
2019-02-22T08:00:57.507Z,46.10
2019-02-22T08:03:26.678Z,42.33
2019-02-22T08:06:15.055Z,43.07
2019-02-22T08:08:56.166Z,41.70
2019-02-22T08:11:37.492Z,39.10
2019-02-22T08:14:07.906Z,40.97
2019-02-22T08:19:25.812Z,42.57
2019-02-22T08:22:06.322Z,41.23
2019-02-22T08:24:47.423Z,42.80
2019-02-22T08:27:28.242Z,43.03
2019-02-22T08:30:09.598Z,45.07
2019-02-22T08:32:51.281Z,46.43
2019-02-22T08:35:31.952Z,39.77
2019-02-22T08:38:13.308Z,47.57
2019-02-22T08:40:42.534Z,52.63
2019-02-22T08:43:31.981Z,43.53
2019-02-22T08:46:14.175Z,48.60
2019-02-22T08:48:55.807Z,50.83
2019-02-22T08:51:36.523Z,50.93
2019-02-22T08:54:16.960Z,50.23
2019-02-22T08:56:58.726Z,49.53
2019-02-22T08:59:39.606Z,40.57
2019-02-22T09:02:08.824Z,43.00
2019-02-22T09:04:57.265Z,40.10
2019-02-22T09:07:38.252Z,44.50
2019-02-22T09:10:07.757Z,47.50
2019-02-22T09:12:36.951Z,43.13
2019-02-22T09:15:25.210Z,38.07
2019-02-22T09:18:13.539Z,31.67
2019-02-22T09:20:54.787Z,33.60
2019-02-22T09:23:35.349Z,34.57
2019-02-22T09:26:17.191Z,31.40
2019-02-22T09:28:58.134Z,27.50
2019-02-22T09:31:39.391Z,25.27
2019-02-22T09:34:20.690Z,24.17
2019-02-22T09:37:01.534Z,24.17
2019-02-22T09:39:31.571Z,22.53
2019-02-22T09:42:19.791Z,24.77
2019-02-22T09:45:08.534Z,24.90
2019-02-22T09:47:49.909Z,17.20
2019-02-22T09:50:30.730Z,21.67
2019-02-22T09:53:12.101Z,14.23
2019-02-22T09:55:52.735Z,15.77
2019-02-22T09:58:33.480Z,16.63
2019-02-22T10:01:14.356Z,17.43
2019-02-22T10:03:54.899Z,13.20
2019-02-22T10:06:35.949Z,14.80
2019-02-22T10:09:16.648Z,16.13
2019-02-22T10:11:57.965Z,13.63
2019-02-22T10:14:39.440Z,14.77
2019-02-22T10:17:08.559Z,14.20
2019-02-22T10:19:57.015Z,14.13
2019-02-22T10:22:45.239Z,12.70
2019-02-22T10:25:25.929Z,11.23
2019-02-22T10:28:16.915Z,9.03
2019-02-22T10:30:37.202Z,9.87
2019-02-22T10:33:35.964Z,8.53
2019-02-22T10:36:07.632Z,7.97
2019-02-22T10:38:48.224Z,10.33
2019-02-22T10:41:29.195Z,9.20
2019-02-22T10:44:17.374Z,8.43
2019-02-22T10:46:52.562Z,7.90
2019-02-22T10:49:33.107Z,10.30
2019-02-22T10:52:14.040Z,8.33
2019-02-22T10:54:59.214Z,8.90
2019-02-22T10:57:40.424Z,9.83
2019-02-22T11:00:29.508Z,9.80
2019-02-22T11:03:10.726Z,7.20
2019-02-22T11:05:51.495Z,8.50
2019-02-22T11:08:32.105Z,8.43
2019-02-22T11:11:12.845Z,10.30
2019-02-22T11:13:54.077Z,6.87
2019-02-22T11:16:35.491Z,4.23
2019-02-22T11:19:16.945Z,4.40
2019-02-22T11:21:58.144Z,3.50
2019-02-22T11:24:37.490Z,3.83
2019-02-22T11:27:06.597Z,3.80
2019-02-22T11:29:35.804Z,3.63
2019-02-22T11:32:24.165Z,6.90
2019-02-22T11:35:12.521Z,4.90
2019-02-22T11:38:00.689Z,4.77
2019-02-22T11:40:41.713Z,4.20
2019-02-22T11:43:22.599Z,4.73
2019-02-22T11:46:03.989Z,4.87
2019-02-22T11:48:45.055Z,5.30
2019-02-22T11:51:25.640Z,6.07
2019-02-22T11:53:54.790Z,4.67
2019-02-22T11:56:43.018Z,7.20
2019-02-22T11:59:31.157Z,6.60
2019-02-22T12:02:11.678Z,7.50
2019-02-22T12:04:52.778Z,6.47
2019-02-22T12:07:33.709Z,7.47
2019-02-22T12:10:14.491Z,6.30
2019-02-22T12:12:55.798Z,5.73
2019-02-22T12:15:36.561Z,7.33
2019-02-22T12:18:17.757Z,7.50
2019-02-22T12:20:58.578Z,7.10
2019-02-22T12:23:39.213Z,7.30
2019-02-22T12:26:20.753Z,8.13
2019-02-22T12:29:01.437Z,6.90
2019-02-22T12:31:30.542Z,5.33
2019-02-22T12:34:18.895Z,7.30
2019-02-22T12:37:07.268Z,6.93
2019-02-22T12:39:48.093Z,7.60
2019-02-22T12:42:29.148Z,4.90
2019-02-22T12:45:09.681Z,6.73
2019-02-22T12:47:50.379Z,4.70
2019-02-22T12:50:31.076Z,5.63
2019-02-22T12:53:11.705Z,6.13
2019-02-22T12:58:51.247Z,6.93
2019-02-22T13:01:32.842Z,5.87
2019-02-22T13:07:26.204Z,8.77
2019-02-22T13:10:07.034Z,6.30
2019-02-22T13:12:48.452Z,5.93
2019-02-22T13:15:17.639Z,7.03
2019-02-22T13:17:46.812Z,8.83
2019-02-22T13:20:35.126Z,7.07
2019-02-22T13:23:23.401Z,8.07
2019-02-22T13:26:04.087Z,6.00
2019-02-22T13:28:45.309Z,7.40
2019-02-22T13:31:30.216Z,6.63
2019-02-22T13:33:57.064Z,5.13
2019-02-22T13:36:45.380Z,7.07
2019-02-22T13:39:26.347Z,5.53
2019-02-22T13:42:07.116Z,7.90
2019-02-22T13:44:47.852Z,5.37
2019-02-22T13:47:28.419Z,5.03
2019-02-22T13:50:09.988Z,4.30
2019-02-22T13:52:51.007Z,4.20
2019-02-22T13:55:32.056Z,5.37
2019-02-22T13:58:13.322Z,5.47
2019-02-22T14:00:54.327Z,5.40
2019-02-22T14:03:36.492Z,4.60
2019-02-22T14:06:17.298Z,4.80
2019-02-22T14:08:58.740Z,5.93
2019-02-22T14:11:28.023Z,6.57
2019-02-22T14:14:16.451Z,3.63
2019-02-22T14:16:57.026Z,4.93
2019-02-22T14:19:38.478Z,6.23
2019-02-22T14:22:19.738Z,6.17
2019-02-22T14:24:48.880Z,4.43
2019-02-22T14:27:37.266Z,6.63
2019-02-22T14:30:25.518Z,4.93
2019-02-22T14:33:06.811Z,4.30
2019-02-22T14:35:47.408Z,4.70
2019-02-22T14:38:28.254Z,4.73
2019-02-22T14:41:09.684Z,3.50
2019-02-22T14:49:50.371Z,3.60
2019-02-22T14:52:31.164Z,4.80
2019-02-22T14:55:11.915Z,4.97
2019-02-22T14:57:41.047Z,4.10
2019-02-22T15:00:29.386Z,8.60
2019-02-22T15:03:17.799Z,4.03
2019-02-22T15:05:46.833Z,4.57
2019-02-22T15:08:35.187Z,3.13
2019-02-22T15:11:16.179Z,5.13
2019-02-22T15:13:57.203Z,3.40
2019-02-22T15:16:56.796Z,3.40
2019-02-22T15:19:37.624Z,3.00
2019-02-22T15:22:06.589Z,5.70
2019-02-22T15:24:54.829Z,4.30
2019-02-22T15:27:43.200Z,4.40
2019-02-22T15:30:24.755Z,5.00
2019-02-22T15:33:05.724Z,3.13
2019-02-22T15:35:34.974Z,3.90
2019-02-22T15:38:23.322Z,3.20
2019-02-22T15:43:54.910Z,5.17
2019-02-22T15:46:43.242Z,6.73
2019-02-22T15:49:12.329Z,6.30
2019-02-22T15:52:00.972Z,6.53
2019-02-22T15:54:49.400Z,7.20
2019-02-22T15:57:30.598Z,7.40
2019-02-22T16:00:11.334Z,4.20
2019-02-22T16:02:40.425Z,6.90
2019-02-22T16:08:26.138Z,9.87
2019-02-22T16:11:14.407Z,7.90
2019-02-22T16:13:55.257Z,5.77
2019-02-22T16:16:36.677Z,5.47
2019-02-22T16:19:18.030Z,7.13
2019-02-22T16:21:59.325Z,9.40
2019-02-22T16:24:28.405Z,5.73
2019-02-22T16:27:16.925Z,6.67
2019-02-22T16:29:45.934Z,5.30
2019-02-22T16:32:34.307Z,9.43
2019-02-22T16:35:22.704Z,6.73
2019-02-22T16:38:04.133Z,11.77
2019-02-22T16:40:44.778Z,9.27
2019-02-22T16:43:25.546Z,10.10
2019-02-22T16:46:06.752Z,8.20
2019-02-22T16:48:48.214Z,6.10
2019-02-22T16:51:29.339Z,9.03
2019-02-22T16:54:09.859Z,9.07
2019-02-22T16:56:53.184Z,5.23
2019-02-22T16:59:34.368Z,9.53
2019-02-22T17:02:14.965Z,7.27
2019-02-22T17:08:03.172Z,5.97
2019-02-22T17:10:42.531Z,6.30
2019-02-22T17:13:23.186Z,7.27
2019-02-22T17:16:03.988Z,6.67
2019-02-22T17:18:44.987Z,8.83
2019-02-22T17:21:14.320Z,9.80
2019-02-22T17:24:03.035Z,8.37
2019-02-22T17:26:51.240Z,8.00
2019-02-22T17:29:32.231Z,7.30
2019-02-22T17:32:01.380Z,9.13
2019-02-22T17:34:30.584Z,6.17
2019-02-22T17:37:18.992Z,5.20
2019-02-22T17:40:08.746Z,11.00
2019-02-22T17:42:57.078Z,5.27
2019-02-22T17:45:38.460Z,13.93
2019-02-22T17:48:07.790Z,6.50
2019-02-22T17:50:56.445Z,4.53
2019-02-22T17:53:37.581Z,6.07
2019-02-22T17:58:49.395Z,5.23
2019-02-22T18:04:38.907Z,3.90
2019-02-22T18:07:19.897Z,7.20
2019-02-22T18:09:49.059Z,5.30
2019-02-22T18:12:37.911Z,5.87
2019-02-22T18:15:26.330Z,5.00
2019-02-22T18:18:09.319Z,6.10
2019-02-22T18:20:53.810Z,3.83
2019-02-22T18:23:34.385Z,5.80
2019-02-22T18:26:15.719Z,3.70
2019-02-22T18:28:44.777Z,5.20
2019-02-22T18:31:33.029Z,4.73
2019-02-22T18:34:21.255Z,6.67
2019-02-22T18:37:03.012Z,4.67
2019-02-22T18:39:51.210Z,7.03
2019-02-22T18:42:31.791Z,5.83
2019-02-22T18:45:12.687Z,6.60
2019-02-22T18:53:38.607Z,12.37
2019-02-22T18:56:10.963Z,20.30
2019-02-22T18:58:59.639Z,24.23
2019-02-22T19:01:28.695Z,23.87
2019-02-22T19:04:16.889Z,7.83
2019-02-22T19:06:57.431Z,9.63
2019-02-22T19:09:41.609Z,9.20
2019-02-22T19:12:26.525Z,12.23
2019-02-22T19:14:55.628Z,7.90
2019-02-22T19:17:30.390Z,10.07
2019-02-22T19:23:02.695Z,10.33
2019-02-22T19:25:44.099Z,7.90
2019-02-22T19:28:25.568Z,9.00
2019-02-22T19:31:06.808Z,16.10
2019-02-22T19:33:49.896Z,9.13
2019-02-22T19:39:20.355Z,19.20
2019-02-22T19:44:49.025Z,10.60
2019-02-22T19:53:32.895Z,12.60
2019-02-22T19:56:14.386Z,9.40
2019-02-22T20:01:37.185Z,10.20
2019-02-22T20:07:04.796Z,10.87
2019-02-22T20:12:35.844Z,14.43
2019-02-22T20:15:17.430Z,8.73
2019-02-22T20:17:58.940Z,12.60
2019-02-22T20:20:42.088Z,13.90
2019-02-22T20:23:11.380Z,13.97
2019-02-22T20:26:00.236Z,12.43
2019-02-22T20:28:48.623Z,14.27
2019-02-22T20:31:37.080Z,10.53
2019-02-22T20:34:18.637Z,10.13
2019-02-22T20:37:02.083Z,12.10
2019-02-22T20:39:43.533Z,12.70
2019-02-22T20:42:12.719Z,14.60
2019-02-22T20:45:01.092Z,11.10
2019-02-22T20:47:42.201Z,12.00
2019-02-22T20:50:12.020Z,11.77
2019-02-22T20:53:00.357Z,12.20
2019-02-22T20:55:48.731Z,13.00
2019-02-22T20:58:29.911Z,14.30
2019-02-22T21:03:57.296Z,14.33
2019-02-22T21:06:47.461Z,31.27
2019-02-22T21:09:35.742Z,28.40
2019-02-22T21:12:17.143Z,12.90
2019-02-22T21:14:58.492Z,12.40
2019-02-22T21:17:56.247Z,14.60
2019-02-22T21:20:25.867Z,16.03
2019-02-22T21:22:55.057Z,22.37
2019-02-22T21:25:24.639Z,65.03
2019-02-22T21:27:53.855Z,20.60
2019-02-22T21:30:22.896Z,14.40
2019-02-22T21:32:52.097Z,17.10
2019-02-22T21:35:21.333Z,34.63
2019-02-22T21:37:50.601Z,28.83
2019-02-22T21:40:19.776Z,27.43
2019-02-22T21:42:50.121Z,29.70
2019-02-22T21:45:19.991Z,22.07
2019-02-22T21:47:54.634Z,13.60
2019-02-22T21:50:20.102Z,25.30
2019-02-22T21:52:49.212Z,35.80
2019-02-22T21:55:18.553Z,41.63
2019-02-22T21:57:49.680Z,42.17
2019-02-22T22:00:19.074Z,32.40
2019-02-22T22:02:48.270Z,45.40
2019-02-22T22:05:17.662Z,64.30
2019-02-22T22:07:46.777Z,64.63
2019-02-22T22:10:15.938Z,49.00
2019-02-22T22:12:45.169Z,39.10
2019-02-22T22:15:14.679Z,72.93
2019-02-22T22:17:43.871Z,54.73
2019-02-22T22:20:13.157Z,19.27
2019-02-22T22:22:42.470Z,14.33
2019-02-22T22:25:11.559Z,14.57
2019-02-22T22:27:40.730Z,17.13
2019-02-22T22:30:11.025Z,15.43
2019-02-22T22:32:40.449Z,22.13
2019-02-22T22:35:10.496Z,20.60
2019-02-22T22:37:39.557Z,10.27
2019-02-22T22:40:09.502Z,15.10
2019-02-22T22:42:38.771Z,11.30
2019-02-22T22:45:08.336Z,11.53
2019-02-22T22:47:37.463Z,13.70
2019-02-22T22:50:08.280Z,10.93
2019-02-22T22:52:37.647Z,8.83
2019-02-22T22:55:07.009Z,9.17
2019-02-22T22:57:36.124Z,12.10
2019-02-22T23:00:08.649Z,11.50
2019-02-22T23:02:37.726Z,9.80
2019-02-22T23:05:07.162Z,17.50
2019-02-22T23:07:36.165Z,18.50
2019-02-22T23:10:12.645Z,13.03
2019-02-22T23:12:44.147Z,10.63
2019-02-22T23:15:12.576Z,11.33
2019-02-22T23:17:41.724Z,12.83
2019-02-22T23:20:10.864Z,10.90
2019-02-22T23:22:39.981Z,14.20
2019-02-22T23:25:09.105Z,13.40
2019-02-22T23:27:39.145Z,16.13
2019-02-22T23:30:08.278Z,13.30
2019-02-22T23:32:37.472Z,14.87
2019-02-22T23:35:07.243Z,12.83
2019-02-22T23:37:36.384Z,19.63
2019-02-22T23:40:05.466Z,15.23
2019-02-22T23:42:34.579Z,13.07
2019-02-22T23:45:03.710Z,15.33
2019-02-22T23:47:32.838Z,15.20
2019-02-22T23:50:01.901Z,15.13
2019-02-22T23:52:31.080Z,14.60
2019-02-22T23:55:00.354Z,15.60
2019-02-22T23:57:32.095Z,16.60
